sensor_id;sensor_type;location;lat;lon;timestamp;temperature;humidity
15426;DHT22;7812;50.072;7.036;2022-12-10T00:00:40;1.10;99.90
15426;DHT22;7812;50.072;7.036;2022-12-10T00:03:06;1.10;99.90
15426;DHT22;7812;50.072;7.036;2022-12-10T00:05:35;1.30;99.90
15426;DHT22;7812;50.072;7.036;2022-12-10T00:08:01;1.50;99.90
15426;DHT22;7812;50.072;7.036;2022-12-10T00:10:27;1.50;99.90
15426;DHT22;7812;50.072;7.036;2022-12-10T00:12:52;1.60;99.90
15426;DHT22;7812;50.072;7.036;2022-12-10T00:15:18;1.70;99.90
15426;DHT22;7812;50.072;7.036;2022-12-10T00:17:45;1.60;99.90
15426;DHT22;7812;50.072;7.036;2022-12-10T00:20:10;1.40;99.90
15426;DHT22;7812;50.072;7.036;2022-12-10T00:22:36;0.90;99.90
15426;DHT22;7812;50.072;7.036;2022-12-10T00:25:02;0.50;99.90
15426;DHT22;7812;50.072;7.036;2022-12-10T00:27:28;0.50;99.90
15426;DHT22;7812;50.072;7.036;2022-12-10T00:29:53;0.80;99.90
15426;DHT22;7812;50.072;7.036;2022-12-10T00:32:19;1.00;99.90
15426;DHT22;7812;50.072;7.036;2022-12-10T00:34:45;1.20;99.90
15426;DHT22;7812;50.072;7.036;2022-12-10T00:37:10;1.30;99.90
15426;DHT22;7812;50.072;7.036;2022-12-10T00:39:36;1.40;99.90
15426;DHT22;7812;50.072;7.036;2022-12-10T00:42:02;1.20;99.90
15426;DHT22;7812;50.072;7.036;2022-12-10T00:44:28;1.00;99.90
15426;DHT22;7812;50.072;7.036;2022-12-10T00:46:54;0.60;99.90
15426;DHT22;7812;50.072;7.036;2022-12-10T00:49:19;0.60;99.90
15426;DHT22;7812;50.072;7.036;2022-12-10T00:51:48;0.90;99.90
15426;DHT22;7812;50.072;7.036;2022-12-10T00:54:14;0.90;99.90
15426;DHT22;7812;50.072;7.036;2022-12-10T00:56:40;1.10;99.90
15426;DHT22;7812;50.072;7.036;2022-12-10T00:59:06;1.20;99.90
15426;DHT22;7812;50.072;7.036;2022-12-10T01:01:35;1.40;99.90
15426;DHT22;7812;50.072;7.036;2022-12-10T01:04:08;1.30;99.90
15426;DHT22;7812;50.072;7.036;2022-12-10T01:06:46;1.30;99.90
15426;DHT22;7812;50.072;7.036;2022-12-10T01:09:15;1.40;99.90
15426;DHT22;7812;50.072;7.036;2022-12-10T01:11:43;1.40;99.90
15426;DHT22;7812;50.072;7.036;2022-12-10T01:14:11;1.60;99.90
15426;DHT22;7812;50.072;7.036;2022-12-10T01:16:38;1.50;99.90
15426;DHT22;7812;50.072;7.036;2022-12-10T01:19:04;1.50;99.90
15426;DHT22;7812;50.072;7.036;2022-12-10T01:21:30;1.20;99.90
15426;DHT22;7812;50.072;7.036;2022-12-10T01:23:57;1.00;99.90
15426;DHT22;7812;50.072;7.036;2022-12-10T01:26:26;0.90;99.90
15426;DHT22;7812;50.072;7.036;2022-12-10T01:28:53;0.60;99.90
15426;DHT22;7812;50.072;7.036;2022-12-10T01:31:21;0.50;99.90
15426;DHT22;7812;50.072;7.036;2022-12-10T01:33:47;0.50;99.90
15426;DHT22;7812;50.072;7.036;2022-12-10T01:36:20;0.50;99.90
15426;DHT22;7812;50.072;7.036;2022-12-10T01:38:46;0.30;99.90
15426;DHT22;7812;50.072;7.036;2022-12-10T01:41:21;0.30;99.90
15426;DHT22;7812;50.072;7.036;2022-12-10T01:46:35;0.40;99.90
15426;DHT22;7812;50.072;7.036;2022-12-10T01:49:03;0.60;99.90
15426;DHT22;7812;50.072;7.036;2022-12-10T01:51:32;0.80;99.90
15426;DHT22;7812;50.072;7.036;2022-12-10T01:53:59;0.90;99.90
15426;DHT22;7812;50.072;7.036;2022-12-10T01:56:25;1.00;99.90
15426;DHT22;7812;50.072;7.036;2022-12-10T01:58:54;1.20;99.90
15426;DHT22;7812;50.072;7.036;2022-12-10T02:06:58;1.70;99.90
15426;DHT22;7812;50.072;7.036;2022-12-10T02:09:40;1.60;99.90
15426;DHT22;7812;50.072;7.036;2022-12-10T02:12:15;1.40;99.90
15426;DHT22;7812;50.072;7.036;2022-12-10T02:20:17;1.60;99.90
15426;DHT22;7812;50.072;7.036;2022-12-10T02:23:24;1.50;99.90
15426;DHT22;7812;50.072;7.036;2022-12-10T02:25:59;1.50;99.90
15426;DHT22;7812;50.072;7.036;2022-12-10T02:28:38;1.50;99.90
15426;DHT22;7812;50.072;7.036;2022-12-10T02:31:05;1.50;99.90
15426;DHT22;7812;50.072;7.036;2022-12-10T02:33:32;1.40;99.90
15426;DHT22;7812;50.072;7.036;2022-12-10T02:36:00;1.20;99.90
15426;DHT22;7812;50.072;7.036;2022-12-10T02:38:30;1.00;99.90
15426;DHT22;7812;50.072;7.036;2022-12-10T02:41:08;0.90;99.90
15426;DHT22;7812;50.072;7.036;2022-12-10T02:43:38;0.90;99.90
15426;DHT22;7812;50.072;7.036;2022-12-10T02:46:05;0.70;99.90
15426;DHT22;7812;50.072;7.036;2022-12-10T02:48:32;0.70;99.90
15426;DHT22;7812;50.072;7.036;2022-12-10T02:50:59;0.80;99.90
15426;DHT22;7812;50.072;7.036;2022-12-10T02:53:25;0.90;99.90
15426;DHT22;7812;50.072;7.036;2022-12-10T02:55:54;0.70;99.90
15426;DHT22;7812;50.072;7.036;2022-12-10T02:58:50;0.70;99.90
15426;DHT22;7812;50.072;7.036;2022-12-10T03:04:00;0.80;99.90
15426;DHT22;7812;50.072;7.036;2022-12-10T03:06:36;0.90;99.90
15426;DHT22;7812;50.072;7.036;2022-12-10T03:09:26;0.90;99.90
15426;DHT22;7812;50.072;7.036;2022-12-10T03:11:59;1.00;99.90
15426;DHT22;7812;50.072;7.036;2022-12-10T03:14:29;1.10;99.90
15426;DHT22;7812;50.072;7.036;2022-12-10T03:16:58;0.90;99.90
15426;DHT22;7812;50.072;7.036;2022-12-10T03:21:58;0.80;99.90
15426;DHT22;7812;50.072;7.036;2022-12-10T03:24:27;0.60;99.90
15426;DHT22;7812;50.072;7.036;2022-12-10T03:26:53;0.50;99.90
15426;DHT22;7812;50.072;7.036;2022-12-10T03:29:22;0.40;99.90
15426;DHT22;7812;50.072;7.036;2022-12-10T03:31:49;0.50;99.90
15426;DHT22;7812;50.072;7.036;2022-12-10T03:34:16;0.80;99.90
15426;DHT22;7812;50.072;7.036;2022-12-10T03:36:42;0.90;99.90
15426;DHT22;7812;50.072;7.036;2022-12-10T03:39:09;1.00;99.90
15426;DHT22;7812;50.072;7.036;2022-12-10T03:41:34;1.10;99.90
15426;DHT22;7812;50.072;7.036;2022-12-10T03:44:00;0.80;99.90
15426;DHT22;7812;50.072;7.036;2022-12-10T03:46:29;0.30;99.90
15426;DHT22;7812;50.072;7.036;2022-12-10T03:48:56;0.40;99.90
15426;DHT22;7812;50.072;7.036;2022-12-10T03:51:22;0.40;99.90
15426;DHT22;7812;50.072;7.036;2022-12-10T03:53:48;0.50;99.90
15426;DHT22;7812;50.072;7.036;2022-12-10T03:56:15;0.60;99.90
15426;DHT22;7812;50.072;7.036;2022-12-10T03:58:41;0.60;99.90
15426;DHT22;7812;50.072;7.036;2022-12-10T04:01:07;0.80;99.90
15426;DHT22;7812;50.072;7.036;2022-12-10T04:03:37;1.00;99.90
15426;DHT22;7812;50.072;7.036;2022-12-10T04:06:06;1.10;99.90
15426;DHT22;7812;50.072;7.036;2022-12-10T04:08:32;0.90;99.90
15426;DHT22;7812;50.072;7.036;2022-12-10T04:11:07;0.80;99.90
15426;DHT22;7812;50.072;7.036;2022-12-10T04:13:34;0.90;99.90
15426;DHT22;7812;50.072;7.036;2022-12-10T04:16:19;0.70;99.90
15426;DHT22;7812;50.072;7.036;2022-12-10T04:19:00;0.90;99.90
15426;DHT22;7812;50.072;7.036;2022-12-10T04:21:27;0.60;99.90
15426;DHT22;7812;50.072;7.036;2022-12-10T04:24:12;0.70;99.90
15426;DHT22;7812;50.072;7.036;2022-12-10T04:26:58;0.70;99.90
15426;DHT22;7812;50.072;7.036;2022-12-10T04:29:27;0.60;99.90
15426;DHT22;7812;50.072;7.036;2022-12-10T04:31:54;0.70;99.90
15426;DHT22;7812;50.072;7.036;2022-12-10T04:34:20;0.50;99.90
15426;DHT22;7812;50.072;7.036;2022-12-10T04:36:46;0.30;99.90
15426;DHT22;7812;50.072;7.036;2022-12-10T04:39:13;0.40;99.90
15426;DHT22;7812;50.072;7.036;2022-12-10T04:41:40;0.50;99.90
15426;DHT22;7812;50.072;7.036;2022-12-10T04:44:06;0.60;99.90
15426;DHT22;7812;50.072;7.036;2022-12-10T04:46:32;0.40;99.90
15426;DHT22;7812;50.072;7.036;2022-12-10T04:48:58;0.40;99.90
15426;DHT22;7812;50.072;7.036;2022-12-10T04:51:23;0.40;99.90
15426;DHT22;7812;50.072;7.036;2022-12-10T04:53:49;0.50;99.90
15426;DHT22;7812;50.072;7.036;2022-12-10T04:56:15;0.70;99.90
15426;DHT22;7812;50.072;7.036;2022-12-10T04:58:40;0.70;99.90
15426;DHT22;7812;50.072;7.036;2022-12-10T05:01:08;0.70;99.90
15426;DHT22;7812;50.072;7.036;2022-12-10T05:03:35;0.80;99.90
15426;DHT22;7812;50.072;7.036;2022-12-10T05:06:06;0.90;99.90
15426;DHT22;7812;50.072;7.036;2022-12-10T05:08:33;0.90;99.90
15426;DHT22;7812;50.072;7.036;2022-12-10T05:11:08;1.00;99.90
15426;DHT22;7812;50.072;7.036;2022-12-10T05:13:35;1.10;99.90
15426;DHT22;7812;50.072;7.036;2022-12-10T05:16:05;1.10;99.90
15426;DHT22;7812;50.072;7.036;2022-12-10T05:18:32;1.10;99.90
15426;DHT22;7812;50.072;7.036;2022-12-10T05:21:06;1.10;99.90
15426;DHT22;7812;50.072;7.036;2022-12-10T05:23:37;1.10;99.90
15426;DHT22;7812;50.072;7.036;2022-12-10T05:28:33;1.10;99.90
15426;DHT22;7812;50.072;7.036;2022-12-10T05:30:59;1.10;99.90
15426;DHT22;7812;50.072;7.036;2022-12-10T05:33:25;1.00;99.90
15426;DHT22;7812;50.072;7.036;2022-12-10T05:36:01;1.00;99.90
15426;DHT22;7812;50.072;7.036;2022-12-10T05:38:28;0.90;99.90
15426;DHT22;7812;50.072;7.036;2022-12-10T05:40:54;0.90;99.90
15426;DHT22;7812;50.072;7.036;2022-12-10T05:43:20;0.60;99.90
15426;DHT22;7812;50.072;7.036;2022-12-10T05:45:46;0.50;99.90
15426;DHT22;7812;50.072;7.036;2022-12-10T05:48:14;0.50;99.90
15426;DHT22;7812;50.072;7.036;2022-12-10T05:50:41;0.50;99.90
15426;DHT22;7812;50.072;7.036;2022-12-10T05:53:07;0.60;99.90
15426;DHT22;7812;50.072;7.036;2022-12-10T05:55:33;0.60;99.90
15426;DHT22;7812;50.072;7.036;2022-12-10T05:58:02;0.30;99.90
15426;DHT22;7812;50.072;7.036;2022-12-10T06:00:41;0.30;99.90
15426;DHT22;7812;50.072;7.036;2022-12-10T06:03:07;0.40;99.90
15426;DHT22;7812;50.072;7.036;2022-12-10T06:05:40;0.50;99.90
15426;DHT22;7812;50.072;7.036;2022-12-10T06:08:07;0.70;99.90
15426;DHT22;7812;50.072;7.036;2022-12-10T06:10:36;0.80;99.90
15426;DHT22;7812;50.072;7.036;2022-12-10T06:13:03;0.70;99.90
15426;DHT22;7812;50.072;7.036;2022-12-10T06:15:28;0.40;99.90
15426;DHT22;7812;50.072;7.036;2022-12-10T06:17:55;0.30;99.90
15426;DHT22;7812;50.072;7.036;2022-12-10T06:20:22;0.40;99.90
15426;DHT22;7812;50.072;7.036;2022-12-10T06:22:47;0.60;99.90
15426;DHT22;7812;50.072;7.036;2022-12-10T06:25:13;0.60;99.90
15426;DHT22;7812;50.072;7.036;2022-12-10T06:27:39;0.70;99.90
15426;DHT22;7812;50.072;7.036;2022-12-10T06:30:05;0.50;99.90
15426;DHT22;7812;50.072;7.036;2022-12-10T06:32:31;0.60;99.90
15426;DHT22;7812;50.072;7.036;2022-12-10T06:34:57;0.70;99.90
15426;DHT22;7812;50.072;7.036;2022-12-10T06:37:23;0.80;99.90
15426;DHT22;7812;50.072;7.036;2022-12-10T06:39:53;0.80;99.90
15426;DHT22;7812;50.072;7.036;2022-12-10T06:42:20;0.80;99.90
15426;DHT22;7812;50.072;7.036;2022-12-10T06:44:46;1.00;99.90
15426;DHT22;7812;50.072;7.036;2022-12-10T06:47:12;1.10;99.90
15426;DHT22;7812;50.072;7.036;2022-12-10T06:49:38;1.20;99.90
15426;DHT22;7812;50.072;7.036;2022-12-10T06:52:04;1.20;99.90
15426;DHT22;7812;50.072;7.036;2022-12-10T06:54:30;1.20;99.90
15426;DHT22;7812;50.072;7.036;2022-12-10T06:56:56;1.20;99.90
15426;DHT22;7812;50.072;7.036;2022-12-10T06:59:22;1.10;99.90
15426;DHT22;7812;50.072;7.036;2022-12-10T07:01:47;0.90;99.90
15426;DHT22;7812;50.072;7.036;2022-12-10T07:04:13;0.90;99.90
15426;DHT22;7812;50.072;7.036;2022-12-10T07:06:39;1.00;99.90
15426;DHT22;7812;50.072;7.036;2022-12-10T07:09:05;1.00;99.90
15426;DHT22;7812;50.072;7.036;2022-12-10T07:11:30;1.10;99.90
15426;DHT22;7812;50.072;7.036;2022-12-10T07:13:58;1.10;99.90
15426;DHT22;7812;50.072;7.036;2022-12-10T07:16:28;0.90;99.90
15426;DHT22;7812;50.072;7.036;2022-12-10T07:18:56;0.60;99.90
15426;DHT22;7812;50.072;7.036;2022-12-10T07:21:24;0.70;99.90
15426;DHT22;7812;50.072;7.036;2022-12-10T07:23:51;0.90;99.90
15426;DHT22;7812;50.072;7.036;2022-12-10T07:26:19;0.90;99.90
15426;DHT22;7812;50.072;7.036;2022-12-10T07:28:45;0.90;99.90
15426;DHT22;7812;50.072;7.036;2022-12-10T07:31:11;0.90;99.90
15426;DHT22;7812;50.072;7.036;2022-12-10T07:33:37;0.70;99.90
15426;DHT22;7812;50.072;7.036;2022-12-10T07:36:05;0.80;99.90
15426;DHT22;7812;50.072;7.036;2022-12-10T07:38:31;0.70;99.90
15426;DHT22;7812;50.072;7.036;2022-12-10T07:40:57;0.80;99.90
15426;DHT22;7812;50.072;7.036;2022-12-10T07:43:22;0.90;99.90
15426;DHT22;7812;50.072;7.036;2022-12-10T07:45:48;0.80;99.90
15426;DHT22;7812;50.072;7.036;2022-12-10T07:48:14;0.80;99.90
15426;DHT22;7812;50.072;7.036;2022-12-10T07:50:40;0.80;99.90
15426;DHT22;7812;50.072;7.036;2022-12-10T07:53:05;0.80;99.90
15426;DHT22;7812;50.072;7.036;2022-12-10T07:55:31;0.80;99.90
15426;DHT22;7812;50.072;7.036;2022-12-10T07:57:57;0.80;99.90
15426;DHT22;7812;50.072;7.036;2022-12-10T08:00:23;0.90;99.90
15426;DHT22;7812;50.072;7.036;2022-12-10T08:02:49;0.90;99.90
15426;DHT22;7812;50.072;7.036;2022-12-10T08:05:14;1.00;99.90
15426;DHT22;7812;50.072;7.036;2022-12-10T08:07:40;1.00;99.90
15426;DHT22;7812;50.072;7.036;2022-12-10T08:10:07;1.20;99.90
15426;DHT22;7812;50.072;7.036;2022-12-10T08:12:32;1.20;99.90
15426;DHT22;7812;50.072;7.036;2022-12-10T08:14:58;1.20;99.90
15426;DHT22;7812;50.072;7.036;2022-12-10T08:17:23;1.30;99.90
15426;DHT22;7812;50.072;7.036;2022-12-10T08:19:49;1.20;99.90
15426;DHT22;7812;50.072;7.036;2022-12-10T08:22:16;1.20;99.90
15426;DHT22;7812;50.072;7.036;2022-12-10T08:24:42;1.10;99.90
15426;DHT22;7812;50.072;7.036;2022-12-10T08:27:07;1.00;99.90
15426;DHT22;7812;50.072;7.036;2022-12-10T08:29:33;1.00;99.90
15426;DHT22;7812;50.072;7.036;2022-12-10T08:31:59;0.90;99.90
15426;DHT22;7812;50.072;7.036;2022-12-10T08:34:24;0.90;99.90
15426;DHT22;7812;50.072;7.036;2022-12-10T08:36:50;0.90;99.90
15426;DHT22;7812;50.072;7.036;2022-12-10T08:39:16;0.80;99.90
15426;DHT22;7812;50.072;7.036;2022-12-10T08:41:43;0.80;99.90
15426;DHT22;7812;50.072;7.036;2022-12-10T08:44:09;0.90;99.90
15426;DHT22;7812;50.072;7.036;2022-12-10T08:46:35;0.90;99.90
15426;DHT22;7812;50.072;7.036;2022-12-10T08:49:01;1.00;99.90
15426;DHT22;7812;50.072;7.036;2022-12-10T08:51:27;1.10;99.90
15426;DHT22;7812;50.072;7.036;2022-12-10T08:53:53;1.10;99.90
15426;DHT22;7812;50.072;7.036;2022-12-10T08:56:20;1.00;99.90
15426;DHT22;7812;50.072;7.036;2022-12-10T08:58:45;0.90;99.90
15426;DHT22;7812;50.072;7.036;2022-12-10T09:01:14;1.00;99.90
15426;DHT22;7812;50.072;7.036;2022-12-10T09:03:40;1.10;99.90
15426;DHT22;7812;50.072;7.036;2022-12-10T09:06:11;1.20;99.90
15426;DHT22;7812;50.072;7.036;2022-12-10T09:08:37;1.30;99.90
15426;DHT22;7812;50.072;7.036;2022-12-10T09:11:15;1.40;99.90
15426;DHT22;7812;50.072;7.036;2022-12-10T09:13:42;1.40;99.90
15426;DHT22;7812;50.072;7.036;2022-12-10T09:16:08;1.30;99.90
15426;DHT22;7812;50.072;7.036;2022-12-10T09:18:34;1.40;99.90
15426;DHT22;7812;50.072;7.036;2022-12-10T09:21:07;1.20;99.90
15426;DHT22;7812;50.072;7.036;2022-12-10T09:23:33;1.30;99.90
15426;DHT22;7812;50.072;7.036;2022-12-10T09:25:59;0.80;99.90
15426;DHT22;7812;50.072;7.036;2022-12-10T09:28:25;0.90;99.90
15426;DHT22;7812;50.072;7.036;2022-12-10T09:30:58;0.50;99.90
15426;DHT22;7812;50.072;7.036;2022-12-10T09:33:25;0.50;99.90
15426;DHT22;7812;50.072;7.036;2022-12-10T09:35:51;0.30;99.90
15426;DHT22;7812;50.072;7.036;2022-12-10T09:38:16;0.50;99.90
15426;DHT22;7812;50.072;7.036;2022-12-10T09:43:46;0.90;99.90
15426;DHT22;7812;50.072;7.036;2022-12-10T09:51:46;1.20;99.90
15426;DHT22;7812;50.072;7.036;2022-12-10T09:54:54;1.20;99.90
15426;DHT22;7812;50.072;7.036;2022-12-10T09:57:29;1.40;99.90
15426;DHT22;7812;50.072;7.036;2022-12-10T10:00:10;1.50;99.90
15426;DHT22;7812;50.072;7.036;2022-12-10T10:02:41;1.70;99.90
15426;DHT22;7812;50.072;7.036;2022-12-10T10:07:36;2.00;99.90
15426;DHT22;7812;50.072;7.036;2022-12-10T10:10:07;2.00;99.90
15426;DHT22;7812;50.072;7.036;2022-12-10T10:12:39;1.60;99.90
15426;DHT22;7812;50.072;7.036;2022-12-10T10:15:19;1.40;99.90
15426;DHT22;7812;50.072;7.036;2022-12-10T10:17:47;1.40;99.90
15426;DHT22;7812;50.072;7.036;2022-12-10T10:20:15;1.50;99.90
15426;DHT22;7812;50.072;7.036;2022-12-10T10:22:41;1.60;99.90
15426;DHT22;7812;50.072;7.036;2022-12-10T10:25:18;1.60;99.90
15426;DHT22;7812;50.072;7.036;2022-12-10T10:27:44;1.80;99.90
15426;DHT22;7812;50.072;7.036;2022-12-10T10:30:18;2.00;99.90
15426;DHT22;7812;50.072;7.036;2022-12-10T10:32:53;2.00;99.90
15426;DHT22;7812;50.072;7.036;2022-12-10T10:35:32;2.00;99.90
15426;DHT22;7812;50.072;7.036;2022-12-10T10:38:06;1.80;99.90
15426;DHT22;7812;50.072;7.036;2022-12-10T10:40:42;1.50;99.90
15426;DHT22;7812;50.072;7.036;2022-12-10T10:43:20;1.40;99.90
15426;DHT22;7812;50.072;7.036;2022-12-10T10:45:58;1.30;99.90
15426;DHT22;7812;50.072;7.036;2022-12-10T10:48:26;1.30;99.90
15426;DHT22;7812;50.072;7.036;2022-12-10T10:51:08;1.40;99.90
15426;DHT22;7812;50.072;7.036;2022-12-10T10:53:43;1.40;99.90
15426;DHT22;7812;50.072;7.036;2022-12-10T10:56:40;1.50;99.90
15426;DHT22;7812;50.072;7.036;2022-12-10T11:01:55;1.80;99.90
15426;DHT22;7812;50.072;7.036;2022-12-10T11:04:46;2.00;99.90
15426;DHT22;7812;50.072;7.036;2022-12-10T11:10:02;2.50;99.90
15426;DHT22;7812;50.072;7.036;2022-12-10T11:12:39;2.70;99.90
15426;DHT22;7812;50.072;7.036;2022-12-10T11:15:32;2.80;99.90
15426;DHT22;7812;50.072;7.036;2022-12-10T11:18:00;2.80;99.90
15426;DHT22;7812;50.072;7.036;2022-12-10T11:20:33;2.70;99.90
15426;DHT22;7812;50.072;7.036;2022-12-10T11:23:09;2.10;99.90
15426;DHT22;7812;50.072;7.036;2022-12-10T11:32:13;1.60;99.90
15426;DHT22;7812;50.072;7.036;2022-12-10T11:40:48;1.50;99.90
15426;DHT22;7812;50.072;7.036;2022-12-10T11:43:11;1.70;99.90
15426;DHT22;7812;50.072;7.036;2022-12-10T11:50:55;1.70;99.90
15426;DHT22;7812;50.072;7.036;2022-12-10T12:09:40;2.80;99.90
15426;DHT22;7812;50.072;7.036;2022-12-10T12:12:13;2.70;99.90
15426;DHT22;7812;50.072;7.036;2022-12-10T12:17:36;3.10;99.90
15426;DHT22;7812;50.072;7.036;2022-12-10T12:22:45;2.80;99.90
15426;DHT22;7812;50.072;7.036;2022-12-10T12:25:22;4.10;99.90
15426;DHT22;7812;50.072;7.036;2022-12-10T12:27:51;5.70;99.90
15426;DHT22;7812;50.072;7.036;2022-12-10T12:30:20;7.20;99.90
15426;DHT22;7812;50.072;7.036;2022-12-10T12:32:54;7.40;99.90
15426;DHT22;7812;50.072;7.036;2022-12-10T12:35:40;7.90;99.90
15426;DHT22;7812;50.072;7.036;2022-12-10T12:41:21;6.90;99.90
15426;DHT22;7812;50.072;7.036;2022-12-10T12:46:45;8.30;99.90
15426;DHT22;7812;50.072;7.036;2022-12-10T12:54:26;6.30;99.90
15426;DHT22;7812;50.072;7.036;2022-12-10T13:02:39;4.40;99.90
15426;DHT22;7812;50.072;7.036;2022-12-10T13:05:20;4.10;99.90
15426;DHT22;7812;50.072;7.036;2022-12-10T13:13:30;3.50;99.90
15426;DHT22;7812;50.072;7.036;2022-12-10T13:15:56;3.30;99.90
15426;DHT22;7812;50.072;7.036;2022-12-10T13:18:42;2.90;99.90
15426;DHT22;7812;50.072;7.036;2022-12-10T13:21:27;2.70;99.90
15426;DHT22;7812;50.072;7.036;2022-12-10T13:24:06;2.80;99.90
15426;DHT22;7812;50.072;7.036;2022-12-10T13:26:32;2.90;99.90
15426;DHT22;7812;50.072;7.036;2022-12-10T13:29:24;2.90;99.90
15426;DHT22;7812;50.072;7.036;2022-12-10T13:32:21;3.00;99.90
15426;DHT22;7812;50.072;7.036;2022-12-10T13:42:45;2.80;99.90
15426;DHT22;7812;50.072;7.036;2022-12-10T13:45:33;2.90;99.90
15426;DHT22;7812;50.072;7.036;2022-12-10T13:48:22;2.50;99.90
15426;DHT22;7812;50.072;7.036;2022-12-10T13:53:54;2.20;99.90
15426;DHT22;7812;50.072;7.036;2022-12-10T14:01:47;2.00;99.90
15426;DHT22;7812;50.072;7.036;2022-12-10T14:06:47;1.90;99.90
15426;DHT22;7812;50.072;7.036;2022-12-10T14:09:21;1.70;99.90
15426;DHT22;7812;50.072;7.036;2022-12-10T14:11:57;1.80;99.90
15426;DHT22;7812;50.072;7.036;2022-12-10T14:14:29;1.90;99.90
15426;DHT22;7812;50.072;7.036;2022-12-10T14:17:03;2.00;99.90
15426;DHT22;7812;50.072;7.036;2022-12-10T14:19:29;2.00;99.90
15426;DHT22;7812;50.072;7.036;2022-12-10T14:21:56;2.20;99.90
15426;DHT22;7812;50.072;7.036;2022-12-10T14:24:33;2.10;99.90
15426;DHT22;7812;50.072;7.036;2022-12-10T14:27:02;1.90;99.90
15426;DHT22;7812;50.072;7.036;2022-12-10T14:29:29;1.80;99.90
15426;DHT22;7812;50.072;7.036;2022-12-10T14:31:55;1.70;99.90
15426;DHT22;7812;50.072;7.036;2022-12-10T14:34:25;1.60;99.90
15426;DHT22;7812;50.072;7.036;2022-12-10T14:36:57;1.50;99.90
15426;DHT22;7812;50.072;7.036;2022-12-10T14:39:28;1.30;99.90
15426;DHT22;7812;50.072;7.036;2022-12-10T14:42:01;1.10;99.90
15426;DHT22;7812;50.072;7.036;2022-12-10T14:44:28;1.00;99.90
15426;DHT22;7812;50.072;7.036;2022-12-10T14:47:16;0.60;99.90
15426;DHT22;7812;50.072;7.036;2022-12-10T14:49:45;0.50;99.90
15426;DHT22;7812;50.072;7.036;2022-12-10T14:52:32;0.60;99.90
15426;DHT22;7812;50.072;7.036;2022-12-10T14:55:01;0.80;99.90
15426;DHT22;7812;50.072;7.036;2022-12-10T14:57:41;1.00;99.90
15426;DHT22;7812;50.072;7.036;2022-12-10T15:00:13;1.10;99.90
15426;DHT22;7812;50.072;7.036;2022-12-10T15:02:41;1.20;99.90
15426;DHT22;7812;50.072;7.036;2022-12-10T15:05:23;1.30;99.90
15426;DHT22;7812;50.072;7.036;2022-12-10T15:08:04;1.30;99.90
15426;DHT22;7812;50.072;7.036;2022-12-10T15:10:37;1.20;99.90
15426;DHT22;7812;50.072;7.036;2022-12-10T15:13:04;1.10;99.90
15426;DHT22;7812;50.072;7.036;2022-12-10T15:15:36;0.60;99.90
15426;DHT22;7812;50.072;7.036;2022-12-10T15:23:23;0.30;99.90
15426;DHT22;7812;50.072;7.036;2022-12-10T15:31:08;0.40;99.90
15426;DHT22;7812;50.072;7.036;2022-12-10T15:33:59;0.10;99.90
15426;DHT22;7812;50.072;7.036;2022-12-10T15:36:42;-0.10;99.90
15426;DHT22;7812;50.072;7.036;2022-12-10T15:44:45;-0.70;99.90
15426;DHT22;7812;50.072;7.036;2022-12-10T15:47:19;-0.70;99.90
15426;DHT22;7812;50.072;7.036;2022-12-10T15:49:46;-0.60;99.90
15426;DHT22;7812;50.072;7.036;2022-12-10T15:52:14;-0.60;99.90
15426;DHT22;7812;50.072;7.036;2022-12-10T15:54:42;-0.60;99.90
15426;DHT22;7812;50.072;7.036;2022-12-10T15:59:44;-0.50;99.90
15426;DHT22;7812;50.072;7.036;2022-12-10T16:05:19;-0.30;99.90
15426;DHT22;7812;50.072;7.036;2022-12-10T16:07:48;-0.20;99.90
15426;DHT22;7812;50.072;7.036;2022-12-10T16:10:16;-0.10;99.90
15426;DHT22;7812;50.072;7.036;2022-12-10T16:12:45;-0.20;99.90
15426;DHT22;7812;50.072;7.036;2022-12-10T16:15:20;-0.30;99.90
15426;DHT22;7812;50.072;7.036;2022-12-10T16:17:46;-0.40;99.90
15426;DHT22;7812;50.072;7.036;2022-12-10T16:22:37;-0.40;99.90
15426;DHT22;7812;50.072;7.036;2022-12-10T16:25:03;-0.40;99.90
15426;DHT22;7812;50.072;7.036;2022-12-10T16:27:29;-0.50;99.90
15426;DHT22;7812;50.072;7.036;2022-12-10T16:29:58;-0.40;99.90
15426;DHT22;7812;50.072;7.036;2022-12-10T16:32:24;-0.40;99.90
15426;DHT22;7812;50.072;7.036;2022-12-10T16:34:49;-0.50;99.90
15426;DHT22;7812;50.072;7.036;2022-12-10T16:37:17;-0.60;99.90
15426;DHT22;7812;50.072;7.036;2022-12-10T16:39:42;-0.60;99.90
15426;DHT22;7812;50.072;7.036;2022-12-10T16:42:10;-0.80;99.90
15426;DHT22;7812;50.072;7.036;2022-12-10T16:44:37;-0.90;99.90
15426;DHT22;7812;50.072;7.036;2022-12-10T16:47:11;-0.90;99.90
15426;DHT22;7812;50.072;7.036;2022-12-10T16:49:37;-0.90;99.90
15426;DHT22;7812;50.072;7.036;2022-12-10T16:52:03;-1.10;99.90
15426;DHT22;7812;50.072;7.036;2022-12-10T16:54:29;-1.10;99.90
15426;DHT22;7812;50.072;7.036;2022-12-10T16:56:55;-1.00;99.90
15426;DHT22;7812;50.072;7.036;2022-12-10T16:59:21;-0.90;99.90
15426;DHT22;7812;50.072;7.036;2022-12-10T17:01:46;-0.90;99.90
15426;DHT22;7812;50.072;7.036;2022-12-10T17:04:12;-1.10;99.90
15426;DHT22;7812;50.072;7.036;2022-12-10T17:06:38;-1.20;99.90
15426;DHT22;7812;50.072;7.036;2022-12-10T17:09:04;-1.20;99.90
15426;DHT22;7812;50.072;7.036;2022-12-10T17:11:38;-1.20;99.90
15426;DHT22;7812;50.072;7.036;2022-12-10T17:14:22;-1.30;99.90
15426;DHT22;7812;50.072;7.036;2022-12-10T17:16:49;-1.30;99.90
15426;DHT22;7812;50.072;7.036;2022-12-10T17:19:15;-1.30;99.90
15426;DHT22;7812;50.072;7.036;2022-12-10T17:21:41;-1.30;99.90
15426;DHT22;7812;50.072;7.036;2022-12-10T17:24:07;-1.20;99.90
15426;DHT22;7812;50.072;7.036;2022-12-10T17:26:36;-1.20;99.90
15426;DHT22;7812;50.072;7.036;2022-12-10T17:29:26;-1.20;99.90
15426;DHT22;7812;50.072;7.036;2022-12-10T17:31:53;-1.20;99.90
15426;DHT22;7812;50.072;7.036;2022-12-10T17:34:19;-1.20;99.90
15426;DHT22;7812;50.072;7.036;2022-12-10T17:36:46;-1.20;99.90
15426;DHT22;7812;50.072;7.036;2022-12-10T17:39:17;-1.20;99.90
15426;DHT22;7812;50.072;7.036;2022-12-10T17:41:43;-1.30;99.90
15426;DHT22;7812;50.072;7.036;2022-12-10T17:44:09;-1.30;99.90
15426;DHT22;7812;50.072;7.036;2022-12-10T17:46:35;-1.30;99.90
15426;DHT22;7812;50.072;7.036;2022-12-10T17:49:02;-1.20;99.90
15426;DHT22;7812;50.072;7.036;2022-12-10T17:51:28;-1.20;99.90
15426;DHT22;7812;50.072;7.036;2022-12-10T17:53:54;-1.30;99.90
15426;DHT22;7812;50.072;7.036;2022-12-10T17:56:22;-1.20;99.90
15426;DHT22;7812;50.072;7.036;2022-12-10T17:58:50;-1.20;99.90
15426;DHT22;7812;50.072;7.036;2022-12-10T18:01:18;-1.20;99.90
15426;DHT22;7812;50.072;7.036;2022-12-10T18:03:44;-1.30;99.90
15426;DHT22;7812;50.072;7.036;2022-12-10T18:06:20;-1.70;99.90
15426;DHT22;7812;50.072;7.036;2022-12-10T18:08:47;-2.10;99.90
15426;DHT22;7812;50.072;7.036;2022-12-10T18:11:16;-1.90;99.90
15426;DHT22;7812;50.072;7.036;2022-12-10T18:13:42;-1.90;99.90
15426;DHT22;7812;50.072;7.036;2022-12-10T18:16:17;-1.80;99.90
15426;DHT22;7812;50.072;7.036;2022-12-10T18:18:44;-1.90;99.90
15426;DHT22;7812;50.072;7.036;2022-12-10T18:21:13;-1.70;99.90
15426;DHT22;7812;50.072;7.036;2022-12-10T18:23:39;-1.60;99.90
15426;DHT22;7812;50.072;7.036;2022-12-10T18:26:12;-1.60;99.90
15426;DHT22;7812;50.072;7.036;2022-12-10T18:31:05;-1.60;99.90
15426;DHT22;7812;50.072;7.036;2022-12-10T18:33:38;-1.90;99.90
15426;DHT22;7812;50.072;7.036;2022-12-10T18:36:05;-1.90;99.90
15426;DHT22;7812;50.072;7.036;2022-12-10T18:38:30;-1.70;99.90
15426;DHT22;7812;50.072;7.036;2022-12-10T18:40:56;-1.70;99.90